Terminal Aerodrome Forecast
Issued by NWS

Home | Current Version | Previous Version | Graphics & Text | Print | Product List | Glossary On
Versions: 1 2 3 4 5 6 7 8 9 10 11 12 13 14 15 16 17 18 19 20 21 22
988
FTUS41 KCLE 142048 AAB
TAFFDY
TAF AMD
KFDY 142048Z 1421/1518 33004KT P6SM VCSH OVC025
      TEMPO 1421/1422 OVC015
     FM150000 33005KT P6SM OVC035
     FM150200 32004KT P6SM FEW045 BKN200=

USA.gov is the U.S. government's official web portal to all federal, state and local government web resources and services.